YM Kaohsiung — MCGF6 — position and weather

sailwx.info

Track history (hours):
 
Tides and Currents Weather Stations Pressure Air Temp Water Temp Dewpoint Dewpoint Depression Visibility Wind Speed Wind Dir Waves Ship Positions

YM Kaohsiung

Last reported at 2014-Sep-04 07:20 UTC. Time now 2014-Sep-15 04:02 UTC.
Position N 26°39' W 120°44'.
Warning: this ship's position is 10 days out of date.

Length 260 m; draft 11.3 m.

Type: Cargo ship. MMSI: 235767000.

Date/timePositionNaut miles runAvg speedWind from/ knotsBaromVisibWave heightAir tempDewpointWater temp
2014-Sep-04 07:20N 26°39' W 120°44'2019.6
2014-Sep-04 06:18N 26°57' W 120°54'1619.7
2014-Sep-04 05:30N 27°11' W 121°02'1919.9
2014-Sep-04 04:33N 27°27' W 121°12'2020.0
2014-Sep-04 03:33N 27°44' W 121°24'2019.8
2014-Sep-04 02:33N 28°01' W 121°35'2119.7
2014-Sep-04 01:28N 28°19' W 121°48'1819.4
2014-Sep-04 00:33N 28°34' W 121°59'2119.5
2014-Sep-03 23:29N 28°52' W 122°11'1919.7
2014-Sep-03 22:30N 29°09' W 122°23'2719.6
2014-Sep-03 21:06N 29°32' W 122°39'3519.8
2014-Sep-03 19:19N 30°03' W 122°59'  
Track history (hours):
 
Tides and Currents Weather Stations Pressure Air Temp Water Temp Dewpoint Dewpoint Depression Visibility Wind Speed Wind Dir Waves Ship Positions

YM Kaohsiung

Last reported at 2014-Sep-04 07:20 UTC. Time now 2014-Sep-15 04:02 UTC.
Position N 26°39' W 120°44'.
Warning: this ship's position is 10 days out of date.

Length 260 m; draft 11.3 m.

Type: Cargo ship. MMSI: 235767000.

Date/timePositionNaut miles runAvg speedWind from/ knotsBaromVisibWave heightAir tempDewpointWater temp
2014-Sep-04 07:20N 26°39' W 120°44'2019.6
2014-Sep-04 06:18N 26°57' W 120°54'1619.7
2014-Sep-04 05:30N 27°11' W 121°02'1919.9
2014-Sep-04 04:33N 27°27' W 121°12'2020.0
2014-Sep-04 03:33N 27°44' W 121°24'2019.8
2014-Sep-04 02:33N 28°01' W 121°35'2119.7
2014-Sep-04 01:28N 28°19' W 121°48'1819.4
2014-Sep-04 00:33N 28°34' W 121°59'2119.5
2014-Sep-03 23:29N 28°52' W 122°11'1919.7
2014-Sep-03 22:30N 29°09' W 122°23'2719.6
2014-Sep-03 21:06N 29°32' W 122°39'3519.8
2014-Sep-03 19:19N 30°03' W 122°59'  

Dump ship's entire track history